createdAt,value
2018-01-22T00:01:06.205Z,31.67
2018-01-22T00:03:35.909Z,31.10
2018-01-22T00:06:05.641Z,30.07
2018-01-22T00:08:35.633Z,29.80
2018-01-22T00:11:05.707Z,29.47
2018-01-22T00:13:35.461Z,27.77
2018-01-22T00:16:05.993Z,31.93
2018-01-22T00:18:35.803Z,26.70
2018-01-22T00:21:05.510Z,29.60
2018-01-22T00:23:35.527Z,27.70
2018-01-22T00:26:05.345Z,31.13
2018-01-22T00:28:35.122Z,30.70
2018-01-22T00:31:04.895Z,29.77
2018-01-22T00:33:34.980Z,27.90
2018-01-22T00:36:04.692Z,31.67
2018-01-22T00:38:34.682Z,30.30
2018-01-22T00:41:04.518Z,30.07
2018-01-22T00:43:34.636Z,29.67
2018-01-22T00:46:04.757Z,29.60
2018-01-22T00:48:38.096Z,30.50
2018-01-22T00:51:07.805Z,31.90
2018-01-22T00:53:38.512Z,29.20
2018-01-22T00:56:09.274Z,32.07
2018-01-22T00:58:39.693Z,27.90
2018-01-22T01:01:09.477Z,27.90
2018-01-22T01:03:40.198Z,28.63
2018-01-22T01:06:10.118Z,29.40
2018-01-22T01:08:40.028Z,29.07
2018-01-22T01:11:09.843Z,27.43
2018-01-22T01:13:39.754Z,28.03
2018-01-22T01:16:09.981Z,27.27
2018-01-22T01:18:39.788Z,29.03
2018-01-22T01:21:09.701Z,28.80
2018-01-22T01:23:39.515Z,26.67
2018-01-22T01:26:09.428Z,29.20
2018-01-22T01:28:39.341Z,25.23
2018-01-22T01:31:09.266Z,28.30
2018-01-22T01:33:39.121Z,28.23
2018-01-22T01:36:08.983Z,26.10
2018-01-22T01:38:38.795Z,28.30
2018-01-22T01:41:08.606Z,28.03
2018-01-22T01:43:39.032Z,26.90
2018-01-22T01:46:08.947Z,26.87
2018-01-22T01:48:38.963Z,25.83
2018-01-22T01:51:08.779Z,26.83
2018-01-22T01:53:38.534Z,26.87
2018-01-22T01:56:08.517Z,29.90
2018-01-22T01:58:38.219Z,25.40
2018-01-22T02:01:08.023Z,25.17
2018-01-22T02:03:39.378Z,27.17
2018-01-22T02:06:09.493Z,25.13
2018-01-22T02:08:39.408Z,25.77
2018-01-22T02:11:09.217Z,26.60
2018-01-22T02:13:39.233Z,26.17
2018-01-22T02:16:09.154Z,27.33
2018-01-22T02:18:38.859Z,25.50
2018-01-22T02:21:10.205Z,26.17
2018-01-22T02:23:39.918Z,23.67
2018-01-22T02:26:09.623Z,25.17
2018-01-22T02:28:39.436Z,25.30
2018-01-22T02:31:09.351Z,24.50
2018-01-22T02:33:39.573Z,26.03
2018-01-22T02:36:10.715Z,26.43
2018-01-22T02:38:40.424Z,24.67
2018-01-22T02:41:10.445Z,23.50
2018-01-22T02:43:41.788Z,25.80
2018-01-22T02:46:11.563Z,22.80
2018-01-22T02:48:41.414Z,23.93
2018-01-22T02:51:11.226Z,23.77
2018-01-22T02:53:40.934Z,24.27
2018-01-22T02:56:10.643Z,24.83
2018-01-22T02:58:40.355Z,21.80
2018-01-22T03:01:10.168Z,24.73
2018-01-22T03:03:40.081Z,22.37
2018-01-22T03:06:09.893Z,23.57
2018-01-22T03:08:39.600Z,20.30
2018-01-22T03:11:09.415Z,23.00
2018-01-22T03:13:39.226Z,23.87
2018-01-22T03:16:09.143Z,23.10
2018-01-22T03:18:38.849Z,20.70
2018-01-22T03:21:08.667Z,24.23
2018-01-22T03:23:38.474Z,23.40
2018-01-22T03:26:08.595Z,22.00
2018-01-22T03:28:38.303Z,23.23
2018-01-22T03:31:08.114Z,21.20
2018-01-22T03:33:37.868Z,21.40
2018-01-22T03:36:08.151Z,19.90
2018-01-22T03:38:38.062Z,23.10
2018-01-22T03:41:09.411Z,22.33
2018-01-22T03:43:45.468Z,22.50
2018-01-22T03:46:16.817Z,22.43
2018-01-22T03:48:46.771Z,21.20
2018-01-22T03:51:16.954Z,20.57
2018-01-22T03:53:46.766Z,21.00
2018-01-22T03:56:16.681Z,22.13
2018-01-22T03:58:46.700Z,21.17
2018-01-22T04:01:17.223Z,22.70
2018-01-22T04:03:48.232Z,20.77
2018-01-22T04:06:18.101Z,21.10
2018-01-22T04:08:48.409Z,20.77
2018-01-22T04:11:18.521Z,23.37
2018-01-22T04:13:48.639Z,20.97
2018-01-22T04:16:18.403Z,20.97
2018-01-22T04:18:48.512Z,21.00
2018-01-22T04:21:18.382Z,22.80
2018-01-22T04:23:48.519Z,20.80
2018-01-22T04:26:18.966Z,20.17
2018-01-22T04:28:49.148Z,21.10
2018-01-22T04:31:19.065Z,22.47
2018-01-22T04:33:48.977Z,21.50
2018-01-22T04:36:20.327Z,21.27
2018-01-22T04:38:50.752Z,21.60
2018-01-22T04:41:22.100Z,22.07
2018-01-22T04:43:51.809Z,21.67
2018-01-22T04:46:21.722Z,19.90
2018-01-22T04:48:53.160Z,22.57
2018-01-22T04:51:22.885Z,21.97
2018-01-22T04:53:52.696Z,21.30
2018-01-22T04:56:23.327Z,22.37
2018-01-22T04:58:53.240Z,20.37
2018-01-22T05:01:22.959Z,21.20
2018-01-22T05:03:53.581Z,22.40
2018-01-22T05:06:23.446Z,20.40
2018-01-22T05:08:53.206Z,19.27
2018-01-22T05:11:24.553Z,22.47
2018-01-22T05:13:55.351Z,19.20
2018-01-22T05:16:25.405Z,20.90
2018-01-22T05:18:55.321Z,22.13
2018-01-22T05:21:25.235Z,19.63
2018-01-22T05:23:55.456Z,22.20
2018-01-22T05:26:25.168Z,21.20
2018-01-22T05:28:55.132Z,21.50
2018-01-22T05:31:24.892Z,21.73
2018-01-22T05:33:55.319Z,20.47
2018-01-22T05:36:25.168Z,20.03
2018-01-22T05:38:55.057Z,20.60
2018-01-22T05:41:25.118Z,21.73
2018-01-22T05:43:54.978Z,23.43
2018-01-22T05:46:26.944Z,23.77
2018-01-22T05:48:56.854Z,19.83
2018-01-22T05:51:26.561Z,24.27
2018-01-22T05:53:56.580Z,21.47
2018-01-22T05:56:26.288Z,21.10
2018-01-22T05:58:56.446Z,23.00
2018-01-22T06:01:26.530Z,20.97
2018-01-22T06:03:56.338Z,21.63
2018-01-22T06:06:26.252Z,23.67
2018-01-22T06:08:56.056Z,20.50
2018-01-22T06:11:25.879Z,23.20
2018-01-22T06:13:55.831Z,22.67
2018-01-22T06:16:25.807Z,22.77
2018-01-22T06:18:57.172Z,23.47
2018-01-22T06:21:27.489Z,21.83
2018-01-22T06:23:57.452Z,21.00
2018-01-22T06:26:27.205Z,21.47
2018-01-22T06:28:58.027Z,21.50
2018-01-22T06:31:27.752Z,22.23
2018-01-22T06:34:03.606Z,23.93
2018-01-22T06:36:33.621Z,22.03
2018-01-22T06:39:04.355Z,23.23
2018-01-22T06:41:34.064Z,24.80
2018-01-22T06:44:03.778Z,23.60
2018-01-22T06:46:33.484Z,23.33
2018-01-22T06:49:04.015Z,23.80
2018-01-22T06:51:33.928Z,22.60
2018-01-22T06:54:03.888Z,22.20
2018-01-22T06:56:33.756Z,23.00
2018-01-22T06:59:04.432Z,23.00
2018-01-22T07:01:34.234Z,22.33
2018-01-22T07:04:04.522Z,20.87
2018-01-22T07:06:35.053Z,20.57
2018-01-22T07:09:05.685Z,24.30
2018-01-22T07:11:35.548Z,23.13
2018-01-22T07:14:11.041Z,24.70
2018-01-22T07:16:40.771Z,23.60
2018-01-22T07:19:11.339Z,25.90
2018-01-22T07:21:41.742Z,24.90
2018-01-22T07:24:27.556Z,24.57
2018-01-22T07:27:13.577Z,21.83
2018-01-22T07:29:43.601Z,25.13
2018-01-22T07:32:13.724Z,24.37
2018-01-22T07:34:43.471Z,25.23
2018-01-22T07:37:13.243Z,22.67
2018-01-22T07:39:43.261Z,24.10
2018-01-22T07:42:13.796Z,23.00
2018-01-22T07:44:43.645Z,23.70
2018-01-22T07:47:13.413Z,23.67
2018-01-22T07:49:43.534Z,25.30
2018-01-22T07:52:13.249Z,25.67
2018-01-22T07:54:44.589Z,22.63
2018-01-22T07:57:14.300Z,24.60
2018-01-22T07:59:44.931Z,23.13
2018-01-22T08:02:14.742Z,24.20
2018-01-22T08:04:44.589Z,23.00
2018-01-22T08:07:14.365Z,20.93
2018-01-22T08:09:44.897Z,22.80
2018-01-22T08:12:14.604Z,22.50
2018-01-22T08:14:46.156Z,23.27
2018-01-22T08:17:15.865Z,23.77
2018-01-22T08:19:45.883Z,23.27
2018-01-22T08:22:15.820Z,22.10
2018-01-22T08:24:45.508Z,23.20
2018-01-22T08:27:16.243Z,21.27
2018-01-22T08:29:45.949Z,22.27
2018-01-22T08:32:15.666Z,22.90
2018-01-22T08:34:45.472Z,24.27
2018-01-22T08:37:15.385Z,23.07
2018-01-22T08:39:45.311Z,23.23
2018-01-22T08:42:15.011Z,24.50
2018-01-22T08:44:45.687Z,22.00
2018-01-22T08:47:15.507Z,23.10
2018-01-22T08:49:45.572Z,25.17
2018-01-22T08:52:15.487Z,21.57
2018-01-22T08:54:45.401Z,23.83
2018-01-22T08:57:16.274Z,24.77
2018-01-22T08:59:46.255Z,23.37
2018-01-22T09:02:16.888Z,24.57
2018-01-22T09:04:47.674Z,23.00
2018-01-22T09:07:18.024Z,23.13
2018-01-22T09:09:47.865Z,22.37
2018-01-22T09:12:17.772Z,24.00
2018-01-22T09:14:47.993Z,22.00
2018-01-22T09:17:18.266Z,24.70
2018-01-22T09:19:48.590Z,23.07
2018-01-22T09:22:18.349Z,24.43
2018-01-22T09:24:48.981Z,27.70
2018-01-22T09:27:20.331Z,23.30
2018-01-22T09:29:50.754Z,26.13
2018-01-22T09:32:20.772Z,23.40
2018-01-22T09:34:50.583Z,22.87
2018-01-22T09:37:20.504Z,23.53
2018-01-22T09:39:50.412Z,24.90
2018-01-22T09:42:20.435Z,24.63
2018-01-22T09:44:50.460Z,23.93
2018-01-22T09:47:20.614Z,23.53
2018-01-22T09:49:50.480Z,24.23
2018-01-22T09:52:20.395Z,22.67
2018-01-22T09:54:50.307Z,25.73
2018-01-22T09:57:20.426Z,25.00
2018-01-22T09:59:50.445Z,33.07
2018-01-22T10:02:21.791Z,49.13
2018-01-22T10:04:51.908Z,47.10
2018-01-22T10:07:21.767Z,38.50
2018-01-22T10:09:51.850Z,37.50
2018-01-22T10:12:22.680Z,37.67
2018-01-22T10:14:52.591Z,38.70
2018-01-22T10:17:22.300Z,33.37
2018-01-22T10:19:52.318Z,31.20
2018-01-22T10:22:22.068Z,30.47
2018-01-22T10:24:51.942Z,29.30
2018-01-22T10:27:21.905Z,30.40
2018-01-22T10:29:51.782Z,30.60
2018-01-22T10:32:21.939Z,30.07
2018-01-22T10:34:51.805Z,29.70
2018-01-22T10:37:21.720Z,29.20
2018-01-22T10:39:52.466Z,30.20
2018-01-22T10:42:22.365Z,29.13
2018-01-22T10:44:52.894Z,28.97
2018-01-22T10:47:22.983Z,27.03
2018-01-22T10:49:53.040Z,28.30
2018-01-22T10:52:22.740Z,26.50
2018-01-22T10:54:52.653Z,27.10
2018-01-22T10:57:22.772Z,27.97
2018-01-22T10:59:52.727Z,28.47
2018-01-22T11:02:22.810Z,27.03
2018-01-22T11:04:53.162Z,26.50
2018-01-22T11:07:23.044Z,26.27
2018-01-22T11:09:52.753Z,28.03
2018-01-22T11:12:22.634Z,26.83
2018-01-22T11:14:52.479Z,26.40
2018-01-22T11:17:23.113Z,29.50
2018-01-22T11:19:52.833Z,28.20
2018-01-22T11:22:22.690Z,28.27
2018-01-22T11:24:52.548Z,24.90
2018-01-22T11:27:22.461Z,27.83
2018-01-22T11:29:52.276Z,28.27
2018-01-22T11:32:21.984Z,28.47
2018-01-22T11:34:52.510Z,28.27
2018-01-22T11:37:22.304Z,25.30
2018-01-22T11:39:52.032Z,26.67
2018-01-22T11:42:23.560Z,26.50
2018-01-22T11:44:53.407Z,30.80
2018-01-22T11:47:23.515Z,26.77
2018-01-22T11:49:53.604Z,28.40
2018-01-22T11:52:23.651Z,26.07
2018-01-22T11:54:53.565Z,27.47
2018-01-22T11:57:23.480Z,26.43
2018-01-22T11:59:55.402Z,28.27
2018-01-22T12:02:25.560Z,30.40
2018-01-22T12:04:55.373Z,30.73
2018-01-22T12:07:25.188Z,27.77
2018-01-22T12:09:55.208Z,28.73
2018-01-22T12:12:25.116Z,29.33
2018-01-22T12:14:55.165Z,28.93
2018-01-22T12:17:25.763Z,29.37
2018-01-22T12:19:55.724Z,26.70
2018-01-22T12:22:25.697Z,30.17
2018-01-22T12:24:55.712Z,28.60
2018-01-22T12:27:25.625Z,30.40
2018-01-22T12:29:55.399Z,28.80
2018-01-22T12:32:25.556Z,28.50
2018-01-22T12:34:56.098Z,29.30
2018-01-22T12:37:25.903Z,30.57
2018-01-22T12:39:55.606Z,29.00
2018-01-22T12:42:25.725Z,29.27
2018-01-22T12:44:55.642Z,29.50
2018-01-22T12:47:25.460Z,29.10
2018-01-22T12:49:55.272Z,29.53
2018-01-22T12:52:25.385Z,26.03
2018-01-22T12:54:55.501Z,29.53
2018-01-22T12:57:26.860Z,27.80
2018-01-22T12:59:57.019Z,29.43
2018-01-22T13:02:26.783Z,27.57
2018-01-22T13:04:56.499Z,29.43
2018-01-22T13:07:26.720Z,25.87
2018-01-22T13:09:56.829Z,28.20
2018-01-22T13:12:26.643Z,27.87
2018-01-22T13:14:58.194Z,26.37
2018-01-22T13:17:28.273Z,27.83
2018-01-22T13:19:58.330Z,29.13
2018-01-22T13:22:28.449Z,27.43
2018-01-22T13:24:58.364Z,25.90
2018-01-22T13:27:28.493Z,26.40
2018-01-22T13:29:58.602Z,28.63
2018-01-22T13:32:28.515Z,28.53
2018-01-22T13:34:59.360Z,28.67
2018-01-22T13:37:29.985Z,29.90
2018-01-22T13:40:04.712Z,28.60
2018-01-22T13:42:34.629Z,31.07
2018-01-22T13:45:04.447Z,28.37
2018-01-22T13:47:34.353Z,28.97
2018-01-22T13:50:04.376Z,27.33
2018-01-22T13:52:34.378Z,28.30
2018-01-22T13:55:04.760Z,30.27
2018-01-22T13:57:34.666Z,28.53
2018-01-22T14:00:04.805Z,29.50
2018-01-22T14:02:34.882Z,27.97
2018-01-22T14:05:06.119Z,30.40
2018-01-22T14:07:36.033Z,27.83
2018-01-22T14:10:06.104Z,28.87
2018-01-22T14:12:36.157Z,28.10
2018-01-22T14:15:06.078Z,30.00
2018-01-22T14:17:35.883Z,29.73
2018-01-22T14:20:05.800Z,29.73
2018-01-22T14:22:36.325Z,29.13
2018-01-22T14:25:06.276Z,27.17
2018-01-22T14:27:36.157Z,29.50
2018-01-22T14:30:06.069Z,27.83
2018-01-22T14:32:36.132Z,30.60
2018-01-22T14:35:05.903Z,28.10
2018-01-22T14:37:35.812Z,28.47
2018-01-22T14:40:05.640Z,30.03
2018-01-22T14:42:36.272Z,30.50
2018-01-22T14:45:06.171Z,28.27
2018-01-22T14:47:36.702Z,31.37
2018-01-22T14:50:06.781Z,28.73
2018-01-22T14:52:36.528Z,29.80
2018-01-22T14:55:05.938Z,29.30
2018-01-22T14:57:35.995Z,29.00
2018-01-22T15:00:06.183Z,30.00
2018-01-22T15:02:37.086Z,30.10
2018-01-22T15:05:07.082Z,28.13
2018-01-22T15:07:37.008Z,27.00
2018-01-22T15:10:06.951Z,28.97
2018-01-22T15:12:36.865Z,28.33
2018-01-22T15:15:06.580Z,28.47
2018-01-22T15:17:38.126Z,29.17
2018-01-22T15:20:08.154Z,30.90
2018-01-22T15:22:38.057Z,27.57
2018-01-22T15:25:07.986Z,29.97
2018-01-22T15:27:37.888Z,27.40
2018-01-22T15:30:07.800Z,29.30
2018-01-22T15:32:37.822Z,28.60
2018-01-22T15:35:07.526Z,27.40
2018-01-22T15:37:37.444Z,28.53
2018-01-22T15:40:07.173Z,29.00
2018-01-22T15:42:36.861Z,30.50
2018-01-22T15:45:06.876Z,33.10
2018-01-22T15:47:36.690Z,27.17
2018-01-22T15:50:07.280Z,27.87
2018-01-22T15:52:37.653Z,29.57
2018-01-22T15:55:07.559Z,30.20
2018-01-22T15:57:37.677Z,30.20
2018-01-22T16:00:07.488Z,29.10
2018-01-22T16:02:37.404Z,30.80
2018-01-22T16:05:08.764Z,30.63
2018-01-22T16:07:39.270Z,30.60
2018-01-22T16:10:08.999Z,29.60
2018-01-22T16:12:38.701Z,30.70
2018-01-22T16:15:08.864Z,30.97
2018-01-22T16:17:38.731Z,30.47
2018-01-22T16:20:08.547Z,30.20
2018-01-22T16:22:38.460Z,30.77
2018-01-22T16:25:09.092Z,32.30
2018-01-22T16:27:40.030Z,27.83
2018-01-22T16:30:10.864Z,32.10
2018-01-22T16:32:41.808Z,29.60
2018-01-22T16:35:11.995Z,29.10
2018-01-22T16:37:41.938Z,32.60
2018-01-22T16:40:12.011Z,28.60
2018-01-22T16:42:41.972Z,29.70
2018-01-22T16:45:12.128Z,28.40
2018-01-22T16:47:46.100Z,30.60
2018-01-22T16:50:15.913Z,27.73
2018-01-22T16:52:46.032Z,31.50
2018-01-22T16:55:15.851Z,31.80
2018-01-22T16:57:45.516Z,31.33
2018-01-22T17:00:15.262Z,30.53
2018-01-22T17:02:46.987Z,29.90
2018-01-22T17:05:17.856Z,29.97
2018-01-22T17:07:47.770Z,30.10
2018-01-22T17:10:17.700Z,31.63
2018-01-22T17:12:48.623Z,30.20
2018-01-22T17:15:18.333Z,32.67
2018-01-22T17:17:48.524Z,31.00
2018-01-22T17:20:18.468Z,30.10
2018-01-22T17:22:48.587Z,29.90
2018-01-22T17:25:19.278Z,29.93
2018-01-22T17:27:49.542Z,29.20
2018-01-22T17:30:20.070Z,29.67
2018-01-22T17:32:50.087Z,28.57
2018-01-22T17:35:20.083Z,28.33
2018-01-22T17:37:50.433Z,33.07
2018-01-22T17:40:21.481Z,29.27
2018-01-22T17:42:53.022Z,30.90
2018-01-22T17:45:23.199Z,30.10
2018-01-22T17:47:53.416Z,32.50
2018-01-22T17:50:23.457Z,29.80
2018-01-22T17:52:53.372Z,29.63
2018-01-22T17:55:23.317Z,30.43
2018-01-22T17:57:53.744Z,30.27
2018-01-22T18:00:23.656Z,28.23
2018-01-22T18:02:53.566Z,28.40
2018-01-22T18:05:24.400Z,30.07
2018-01-22T18:07:54.425Z,29.20
2018-01-22T18:10:24.748Z,31.40
2018-01-22T18:12:54.554Z,30.67
2018-01-22T18:15:24.569Z,29.10
2018-01-22T18:17:54.586Z,30.03
2018-01-22T18:20:24.801Z,29.30
2018-01-22T18:22:54.936Z,30.00
2018-01-22T18:25:25.928Z,30.30
2018-01-22T18:27:55.889Z,28.37
2018-01-22T18:30:26.412Z,27.40
2018-01-22T18:32:58.168Z,29.40
2018-01-22T18:35:31.394Z,28.27
2018-01-22T18:38:04.479Z,28.77
2018-01-22T18:40:34.671Z,29.70
2018-01-22T18:43:04.592Z,29.00
2018-01-22T18:45:34.643Z,27.50
2018-01-22T18:48:04.578Z,32.20
2018-01-22T18:50:34.843Z,29.57
2018-01-22T18:53:06.200Z,28.47
2018-01-22T18:55:37.026Z,29.23
2018-01-22T18:58:07.040Z,31.83
2018-01-22T19:00:37.985Z,30.70
2018-01-22T19:03:07.933Z,30.97
2018-01-22T19:05:38.114Z,32.53
2018-01-22T19:08:08.029Z,32.40
2018-01-22T19:10:37.840Z,31.40
2018-01-22T19:13:07.835Z,35.17
2018-01-22T19:15:38.739Z,30.90
2018-01-22T19:18:08.846Z,32.93
2018-01-22T19:20:38.835Z,31.43
2018-01-22T19:23:09.147Z,31.97
2018-01-22T19:25:41.115Z,33.27
2018-01-22T19:28:16.016Z,29.30
2018-01-22T19:30:46.267Z,29.17
2018-01-22T19:33:16.534Z,32.47
2018-01-22T19:35:46.425Z,30.17
2018-01-22T19:38:16.513Z,28.90
2018-01-22T19:40:46.763Z,32.80
2018-01-22T19:43:17.982Z,31.20
2018-01-22T19:45:48.602Z,29.77
2018-01-22T19:48:19.463Z,32.40
2018-01-22T19:50:49.556Z,31.63
2018-01-22T19:53:21.049Z,31.40
2018-01-22T19:55:51.236Z,29.63
2018-01-22T19:58:22.579Z,29.40
2018-01-22T20:00:53.062Z,31.80
2018-01-22T20:03:23.823Z,31.63
2018-01-22T20:05:54.105Z,33.30
2018-01-22T20:08:24.428Z,34.80
2018-01-22T20:10:54.743Z,31.50
2018-01-22T20:13:25.221Z,32.70
2018-01-22T20:15:55.315Z,32.60
2018-01-22T20:18:25.498Z,29.73
2018-01-22T20:20:57.133Z,31.73
2018-01-22T20:23:28.701Z,31.87
2018-01-22T20:25:58.681Z,33.33
2018-01-22T20:28:29.333Z,34.80
2018-01-22T20:30:59.752Z,32.90
2018-01-22T20:33:30.400Z,34.47
2018-01-22T20:36:01.174Z,34.37
2018-01-22T20:38:31.764Z,35.50
2018-01-22T20:41:02.270Z,31.67
2018-01-22T20:43:33.149Z,34.50
2018-01-22T20:46:04.647Z,34.80
2018-01-22T20:48:35.034Z,36.23
2018-01-22T20:51:05.366Z,35.13
2018-01-22T20:53:35.581Z,33.70
2018-01-22T20:56:06.050Z,37.20
2018-01-22T20:58:36.045Z,33.43
2018-01-22T21:01:06.388Z,36.70
2018-01-22T21:03:37.177Z,33.23
2018-01-22T21:06:08.306Z,32.70
2018-01-22T21:08:38.837Z,32.33
2018-01-22T21:11:09.397Z,33.77
2018-01-22T21:13:39.922Z,34.47
2018-01-22T21:16:10.429Z,34.50
2018-01-22T21:18:40.805Z,36.00
2018-01-22T21:21:11.444Z,33.67
2018-01-22T21:23:42.565Z,36.57
2018-01-22T21:26:12.710Z,33.10
2018-01-22T21:28:43.192Z,35.07
2018-01-22T21:31:13.695Z,33.03
2018-01-22T21:33:44.186Z,35.17
2018-01-22T21:36:14.653Z,33.90
2018-01-22T21:38:46.643Z,31.57
2018-01-22T21:41:18.040Z,35.93
2018-01-22T21:43:49.467Z,34.47
2018-01-22T21:46:19.941Z,34.53
2018-01-22T21:48:50.260Z,34.13
2018-01-22T21:51:20.710Z,34.57
2018-01-22T21:53:51.435Z,33.40
2018-01-22T21:56:21.335Z,35.53
2018-01-22T21:58:51.249Z,35.70
2018-01-22T22:01:21.164Z,36.80
2018-01-22T22:03:51.793Z,37.03
2018-01-22T22:06:21.768Z,36.63
2018-01-22T22:08:52.135Z,36.60
2018-01-22T22:11:22.151Z,35.20
2018-01-22T22:13:51.963Z,36.67
2018-01-22T22:16:21.988Z,37.13
2018-01-22T22:18:51.899Z,35.30
2018-01-22T22:21:21.604Z,36.80
2018-01-22T22:23:51.643Z,38.20
2018-01-22T22:26:21.539Z,33.80
2018-01-22T22:28:51.458Z,34.30
2018-01-22T22:31:21.159Z,34.43
2018-01-22T22:33:51.595Z,38.73
2018-01-22T22:36:21.404Z,35.73
2018-01-22T22:38:52.138Z,35.90
2018-01-22T22:41:22.095Z,36.63
2018-01-22T22:43:52.072Z,37.13
2018-01-22T22:46:21.988Z,36.70
2018-01-22T22:48:51.685Z,35.80
2018-01-22T22:51:21.702Z,35.30
2018-01-22T22:53:52.036Z,38.70
2018-01-22T22:56:21.893Z,31.50
2018-01-22T22:58:51.821Z,32.20
2018-01-22T23:01:21.966Z,32.73
2018-01-22T23:03:52.196Z,34.07
2018-01-22T23:06:23.280Z,32.67
2018-01-22T23:08:53.046Z,34.90
2018-01-22T23:11:22.758Z,37.53
2018-01-22T23:13:52.672Z,38.90
2018-01-22T23:16:23.563Z,37.43
2018-01-22T23:18:53.422Z,35.23
2018-01-22T23:21:24.257Z,36.97
2018-01-22T23:23:54.075Z,38.57
2018-01-22T23:26:23.970Z,36.50
2018-01-22T23:28:53.898Z,37.47
2018-01-22T23:31:23.815Z,35.47
2018-01-22T23:33:53.828Z,35.60
2018-01-22T23:36:23.643Z,34.73
2018-01-22T23:38:53.322Z,36.50
2018-01-22T23:41:23.161Z,35.90
2018-01-22T23:43:52.988Z,36.13
2018-01-22T23:46:22.727Z,36.00
2018-01-22T23:48:52.708Z,35.07
2018-01-22T23:51:22.511Z,39.73
2018-01-22T23:53:52.323Z,37.67
2018-01-22T23:56:22.544Z,34.37
2018-01-22T23:58:52.253Z,38.33
